LGL2595 ESGG-EGNX
Flight info
| Callsign | LGL2595 |
|---|---|
| Flight time | N/A |
| Altitude | 38000 |
| Route | DETNA N866 GOLUM L975 LESRA DCT ODMOS DCT ERDOW UL975 LIBSO |
| Aircraft | B38M/M-SDE1FGHILORVWXY/HB1 |
Departure
| Time | 2026-05-08 06:46 |
|---|---|
| Airport | Göteborg Landvetter Airport (ESGG) |
Arrival
| Time | N/A |
|---|---|
| Airport | East Midlands Airport (EGNX) |
| Time | Latitude | Longitude | Altitude | Speed | Heading |
|---|---|---|---|---|---|
| 2026-05-08 05:50 | 57.66730 | 12.29266 | 528 ft | 0 kts | 116° |
| 2026-05-08 06:35 | 57.66736 | 12.29241 | 528 ft | 4 kts | 116° |
| 2026-05-08 06:35 | 57.66746 | 12.29203 | 528 ft | 3 kts | 116° |
| 2026-05-08 06:35 | 57.66759 | 12.29172 | 528 ft | 4 kts | 155° |
| 2026-05-08 06:35 | 57.66779 | 12.29171 | 529 ft | 4 kts | 202° |
| 2026-05-08 06:36 | 57.66792 | 12.29182 | 529 ft | 1 kts | 206° |
| 2026-05-08 06:36 | 57.66794 | 12.29184 | 529 ft | 0 kts | 209° |
| 2026-05-08 06:40 | 57.66794 | 12.29183 | 529 ft | 1 kts | 213° |
| 2026-05-08 06:40 | 57.66781 | 12.29172 | 529 ft | 4 kts | 206° |
| 2026-05-08 06:40 | 57.66768 | 12.29150 | 528 ft | 1 kts | 252° |
| 2026-05-08 06:40 | 57.66779 | 12.29078 | 528 ft | 10 kts | 294° |
| 2026-05-08 06:41 | 57.66814 | 12.28944 | 528 ft | 11 kts | 296° |
| 2026-05-08 06:41 | 57.66818 | 12.28823 | 528 ft | 11 kts | 232° |
| 2026-05-08 06:41 | 57.66747 | 12.28744 | 527 ft | 14 kts | 208° |
| 2026-05-08 06:41 | 57.66651 | 12.28662 | 526 ft | 17 kts | 204° |
| 2026-05-08 06:42 | 57.66540 | 12.28559 | 525 ft | 19 kts | 206° |
| 2026-05-08 06:42 | 57.66415 | 12.28447 | 524 ft | 21 kts | 205° |
| 2026-05-08 06:42 | 57.66276 | 12.28321 | 522 ft | 23 kts | 207° |
| 2026-05-08 06:42 | 57.66124 | 12.28183 | 521 ft | 25 kts | 206° |
| 2026-05-08 06:43 | 57.65959 | 12.28035 | 519 ft | 27 kts | 206° |
| 2026-05-08 06:43 | 57.65782 | 12.27877 | 517 ft | 29 kts | 205° |
| 2026-05-08 06:43 | 57.65595 | 12.27708 | 515 ft | 31 kts | 207° |
| 2026-05-08 06:43 | 57.65399 | 12.27523 | 513 ft | 32 kts | 207° |
| 2026-05-08 06:44 | 57.65206 | 12.27342 | 511 ft | 30 kts | 206° |
| 2026-05-08 06:44 | 57.65047 | 12.27193 | 510 ft | 17 kts | 206° |
| 2026-05-08 06:44 | 57.64973 | 12.27125 | 509 ft | 12 kts | 206° |
| 2026-05-08 06:44 | 57.64893 | 12.27050 | 508 ft | 11 kts | 206° |
| 2026-05-08 06:45 | 57.64887 | 12.26941 | 507 ft | 11 kts | 326° |
| 2026-05-08 06:45 | 57.64940 | 12.26854 | 507 ft | 11 kts | 316° |
| 2026-05-08 06:45 | 57.65002 | 12.26815 | 509 ft | 10 kts | 13° |
| 2026-05-08 06:45 | 57.65077 | 12.26878 | 511 ft | 17 kts | 26° |
| 2026-05-08 06:46 | 57.65237 | 12.27023 | 513 ft | 40 kts | 26° |
| 2026-05-08 06:46 | 57.65729 | 12.27474 | 515 ft | 116 kts | 26° |
| 2026-05-08 06:46 | 57.66630 | 12.28296 | 575 ft | 170 kts | 26° |
| 2026-05-08 06:46 | 57.67763 | 12.29284 | 1197 ft | 183 kts | 25° |
| 2026-05-08 06:47 | 57.68894 | 12.30201 | 2230 ft | 174 kts | 24° |
| 2026-05-08 06:47 | 57.70070 | 12.31182 | 2719 ft | 196 kts | 26° |
| 2026-05-08 06:47 | 57.71381 | 12.32337 | 3095 ft | 223 kts | 27° |
| 2026-05-08 06:47 | 57.72836 | 12.33661 | 3550 ft | 246 kts | 28° |
| 2026-05-08 06:48 | 57.74385 | 12.35106 | 4447 ft | 250 kts | 28° |
| 2026-05-08 06:48 | 57.75969 | 12.36601 | 5027 ft | 267 kts | 28° |
| 2026-05-08 06:48 | 57.77646 | 12.38199 | 5871 ft | 271 kts | 28° |
| 2026-05-08 06:48 | 57.79338 | 12.39789 | 6764 ft | 275 kts | 24° |
| 2026-05-08 06:49 | 57.81249 | 12.40399 | 7646 ft | 279 kts | 355° |
| 2026-05-08 06:49 | 57.83118 | 12.39364 | 8427 ft | 285 kts | 330° |
| 2026-05-08 06:49 | 57.84789 | 12.37335 | 9251 ft | 288 kts | 327° |
| 2026-05-08 06:49 | 57.86482 | 12.35257 | 10059 ft | 292 kts | 324° |
| 2026-05-08 06:50 | 57.87860 | 12.32541 | 10743 ft | 299 kts | 300° |
| 2026-05-08 06:50 | 57.88557 | 12.28775 | 11122 ft | 315 kts | 274° |
| 2026-05-08 06:50 | 57.88408 | 12.24546 | 11580 ft | 328 kts | 261° |
| 2026-05-08 06:50 | 57.88101 | 12.20313 | 12239 ft | 332 kts | 261° |
| 2026-05-08 06:51 | 57.87436 | 12.16167 | 13003 ft | 334 kts | 244° |
| 2026-05-08 06:51 | 57.86417 | 12.12215 | 13700 ft | 339 kts | 244° |
| 2026-05-08 06:51 | 57.85399 | 12.08201 | 14430 ft | 342 kts | 244° |
| 2026-05-08 06:51 | 57.84364 | 12.04161 | 15148 ft | 345 kts | 244° |
| 2026-05-08 06:52 | 57.83314 | 12.00084 | 15818 ft | 349 kts | 244° |
| 2026-05-08 06:52 | 57.82251 | 11.95967 | 16477 ft | 352 kts | 244° |
| 2026-05-08 06:52 | 57.81177 | 11.91816 | 17103 ft | 356 kts | 243° |
| 2026-05-08 06:52 | 57.80090 | 11.87623 | 17728 ft | 359 kts | 243° |
| 2026-05-08 06:53 | 57.78993 | 11.83399 | 18314 ft | 362 kts | 243° |
| 2026-05-08 06:53 | 57.77884 | 11.79141 | 18885 ft | 365 kts | 243° |
| 2026-05-08 06:53 | 57.76763 | 11.74839 | 19439 ft | 369 kts | 243° |
| 2026-05-08 06:53 | 57.75632 | 11.70512 | 19969 ft | 372 kts | 243° |
| 2026-05-08 06:54 | 57.74489 | 11.66143 | 20491 ft | 375 kts | 243° |
| 2026-05-08 06:54 | 57.73334 | 11.61743 | 20997 ft | 378 kts | 243° |
| 2026-05-08 06:54 | 57.72168 | 11.57305 | 21496 ft | 381 kts | 243° |
| 2026-05-08 06:54 | 57.70991 | 11.52839 | 21992 ft | 384 kts | 243° |
| 2026-05-08 06:55 | 57.69806 | 11.48345 | 22485 ft | 387 kts | 243° |
| 2026-05-08 06:55 | 57.68608 | 11.43816 | 22971 ft | 390 kts | 243° |
| 2026-05-08 06:55 | 57.67400 | 11.39255 | 23437 ft | 393 kts | 243° |
| 2026-05-08 06:55 | 57.66182 | 11.34667 | 23907 ft | 396 kts | 243° |
| 2026-05-08 06:56 | 57.64954 | 11.30047 | 24370 ft | 399 kts | 243° |
| 2026-05-08 06:56 | 57.63716 | 11.25400 | 24837 ft | 401 kts | 243° |
| 2026-05-08 06:56 | 57.62467 | 11.20726 | 25286 ft | 404 kts | 242° |
| 2026-05-08 06:56 | 57.61208 | 11.16023 | 25716 ft | 406 kts | 242° |
| 2026-05-08 06:57 | 57.59942 | 11.11299 | 26138 ft | 409 kts | 242° |
| 2026-05-08 06:57 | 57.58586 | 11.06621 | 26524 ft | 410 kts | 233° |
| 2026-05-08 06:57 | 57.56789 | 11.02490 | 26932 ft | 412 kts | 229° |
| 2026-05-08 06:57 | 57.54974 | 10.98351 | 27307 ft | 414 kts | 230° |
| 2026-05-08 06:58 | 57.53139 | 10.94189 | 27697 ft | 416 kts | 229° |
| 2026-05-08 06:58 | 57.51295 | 10.90024 | 28072 ft | 419 kts | 229° |
| 2026-05-08 06:58 | 57.49437 | 10.85840 | 28433 ft | 421 kts | 229° |
| 2026-05-08 06:58 | 57.47567 | 10.81636 | 28777 ft | 423 kts | 229° |
| 2026-05-08 06:59 | 57.45686 | 10.77416 | 29105 ft | 425 kts | 229° |
| 2026-05-08 06:59 | 57.44434 | 10.74611 | 29327 ft | 427 kts | 229° |
| 2026-05-08 06:59 | 57.42532 | 10.70356 | 29669 ft | 428 kts | 229° |
| 2026-05-08 06:59 | 57.40624 | 10.66096 | 29998 ft | 430 kts | 229° |
| 2026-05-08 07:00 | 57.38705 | 10.61819 | 30302 ft | 433 kts | 229° |
| 2026-05-08 07:00 | 57.36774 | 10.57524 | 30614 ft | 434 kts | 229° |
| 2026-05-08 07:00 | 57.34833 | 10.53214 | 30904 ft | 437 kts | 229° |
| 2026-05-08 07:00 | 57.32883 | 10.48891 | 31199 ft | 438 kts | 229° |
| 2026-05-08 07:01 | 57.30921 | 10.44548 | 31484 ft | 441 kts | 229° |
| 2026-05-08 07:01 | 57.28950 | 10.40196 | 31760 ft | 443 kts | 229° |
| 2026-05-08 07:01 | 57.26968 | 10.35827 | 32060 ft | 444 kts | 228° |
| 2026-05-08 07:01 | 57.24974 | 10.31440 | 32330 ft | 446 kts | 228° |
| 2026-05-08 07:02 | 57.22970 | 10.27038 | 32621 ft | 448 kts | 228° |
| 2026-05-08 07:02 | 57.20966 | 10.22646 | 32959 ft | 448 kts | 228° |
| 2026-05-08 07:02 | 57.18962 | 10.18259 | 33311 ft | 447 kts | 228° |
| 2026-05-08 07:02 | 57.16958 | 10.13881 | 33655 ft | 447 kts | 228° |
| 2026-05-08 07:03 | 57.14955 | 10.09515 | 34001 ft | 446 kts | 228° |
| 2026-05-08 07:03 | 57.12952 | 10.05153 | 34329 ft | 446 kts | 228° |
| 2026-05-08 07:03 | 57.10953 | 10.00792 | 34645 ft | 446 kts | 229° |
| 2026-05-08 07:03 | 57.09220 | 9.96049 | 34962 ft | 447 kts | 237° |
| 2026-05-08 07:04 | 57.07597 | 9.91193 | 35285 ft | 446 kts | 236° |
| 2026-05-08 07:04 | 57.05971 | 9.86361 | 35611 ft | 444 kts | 236° |
| 2026-05-08 07:04 | 57.04349 | 9.81529 | 35898 ft | 444 kts | 236° |
| 2026-05-08 07:04 | 57.02729 | 9.76708 | 36170 ft | 443 kts | 237° |
| 2026-05-08 07:05 | 57.01111 | 9.71898 | 36421 ft | 443 kts | 237° |
| 2026-05-08 07:05 | 56.99490 | 9.67096 | 36653 ft | 443 kts | 237° |
| 2026-05-08 07:05 | 56.97870 | 9.62300 | 36895 ft | 442 kts | 237° |
| 2026-05-08 07:05 | 56.96251 | 9.57517 | 37199 ft | 440 kts | 237° |
| 2026-05-08 07:06 | 56.94639 | 9.52766 | 37495 ft | 438 kts | 237° |
| 2026-05-08 07:06 | 56.93032 | 9.48040 | 37767 ft | 436 kts | 237° |
| 2026-05-08 07:06 | 56.91433 | 9.43343 | 37997 ft | 435 kts | 237° |
| 2026-05-08 07:06 | 56.89833 | 9.38656 | 38180 ft | 434 kts | 237° |
| 2026-05-08 07:07 | 56.86625 | 9.29284 | 38231 ft | 434 kts | 237° |
| 2026-05-08 07:07 | 56.83423 | 9.19964 | 38230 ft | 433 kts | 237° |
| 2026-05-08 07:08 | 56.80214 | 9.10662 | 38243 ft | 433 kts | 237° |
| 2026-05-08 07:08 | 56.76995 | 9.01365 | 38245 ft | 433 kts | 236° |
| 2026-05-08 07:09 | 56.73775 | 8.92096 | 38246 ft | 433 kts | 236° |
| 2026-05-08 07:09 | 56.70547 | 8.82850 | 38238 ft | 432 kts | 236° |
| 2026-05-08 07:10 | 56.67313 | 8.73623 | 38244 ft | 432 kts | 236° |
| 2026-05-08 07:10 | 56.64075 | 8.64411 | 38246 ft | 432 kts | 236° |
| 2026-05-08 07:11 | 56.60832 | 8.55225 | 38244 ft | 432 kts | 236° |
| 2026-05-08 07:11 | 56.57579 | 8.46043 | 38243 ft | 433 kts | 236° |
| 2026-05-08 07:12 | 56.54315 | 8.36871 | 38243 ft | 433 kts | 236° |
| 2026-05-08 07:12 | 56.51047 | 8.27716 | 38230 ft | 433 kts | 236° |
| 2026-05-08 07:13 | 56.47818 | 8.18591 | 38230 ft | 433 kts | 238° |
| 2026-05-08 07:13 | 56.44711 | 8.09242 | 38226 ft | 434 kts | 237° |
| 2026-05-08 07:14 | 56.41583 | 7.99929 | 38233 ft | 434 kts | 237° |
| 2026-05-08 07:14 | 56.38442 | 7.90622 | 38232 ft | 433 kts | 237° |
| 2026-05-08 07:15 | 56.35279 | 7.81286 | 38224 ft | 433 kts | 237° |
| 2026-05-08 07:15 | 56.32131 | 7.72027 | 38223 ft | 433 kts | 237° |
| 2026-05-08 07:16 | 56.28998 | 7.62849 | 38230 ft | 433 kts | 237° |
| 2026-05-08 07:16 | 56.25836 | 7.53618 | 38226 ft | 433 kts | 237° |
| 2026-05-08 07:17 | 56.22675 | 7.44415 | 38230 ft | 433 kts | 237° |
| 2026-05-08 07:17 | 56.19507 | 7.35217 | 38235 ft | 433 kts | 237° |
| 2026-05-08 07:18 | 56.16332 | 7.26034 | 38227 ft | 433 kts | 237° |
| 2026-05-08 07:18 | 56.13159 | 7.16888 | 38226 ft | 432 kts | 236° |
| 2026-05-08 07:19 | 56.09979 | 7.07760 | 38229 ft | 432 kts | 236° |
| 2026-05-08 07:19 | 56.06797 | 6.98659 | 38222 ft | 431 kts | 236° |
| 2026-05-08 07:20 | 56.03603 | 6.89562 | 38225 ft | 431 kts | 236° |
| 2026-05-08 07:20 | 56.00414 | 6.80506 | 38221 ft | 431 kts | 236° |
| 2026-05-08 07:21 | 55.97214 | 6.71455 | 38222 ft | 432 kts | 236° |
| 2026-05-08 07:21 | 55.93997 | 6.62390 | 38217 ft | 432 kts | 236° |
| 2026-05-08 07:22 | 55.90775 | 6.53346 | 38213 ft | 432 kts | 236° |
| 2026-05-08 07:22 | 55.87546 | 6.44315 | 38209 ft | 432 kts | 236° |
| 2026-05-08 07:23 | 55.84313 | 6.35307 | 38199 ft | 431 kts | 236° |
| 2026-05-08 07:23 | 55.81078 | 6.26325 | 38194 ft | 431 kts | 236° |
| 2026-05-08 07:24 | 55.77834 | 6.17350 | 38194 ft | 431 kts | 236° |
| 2026-05-08 07:24 | 55.74587 | 6.08403 | 38194 ft | 431 kts | 236° |
| 2026-05-08 07:25 | 55.71328 | 5.99455 | 38189 ft | 432 kts | 236° |
| 2026-05-08 07:26 | 55.66435 | 5.86076 | 38176 ft | 431 kts | 236° |
| 2026-05-08 07:26 | 55.63162 | 5.77169 | 38181 ft | 431 kts | 236° |
| 2026-05-08 07:27 | 55.59883 | 5.68280 | 38174 ft | 431 kts | 236° |